sensor_id;sensor_type;location;lat;lon;timestamp;P1;durP1;ratioP1;P2;durP2;ratioP2
53056;SDS011;38940;50.096;4.012;2022-09-01T00:01:55;3.90;;;1.85;;
53056;SDS011;38940;50.096;4.012;2022-09-01T00:04:22;3.25;;;2.05;;
53056;SDS011;38940;50.096;4.012;2022-09-01T00:06:50;3.47;;;1.73;;
53056;SDS011;38940;50.096;4.012;2022-09-01T00:09:19;8.23;;;1.67;;
53056;SDS011;38940;50.096;4.012;2022-09-01T00:11:47;3.95;;;1.80;;
53056;SDS011;38940;50.096;4.012;2022-09-01T00:14:14;4.03;;;1.80;;
53056;SDS011;38940;50.096;4.012;2022-09-01T00:16:40;3.90;;;1.67;;
53056;SDS011;38940;50.096;4.012;2022-09-01T00:19:06;2.28;;;1.63;;
53056;SDS011;38940;50.096;4.012;2022-09-01T00:21:34;1.80;;;1.63;;
53056;SDS011;38940;50.096;4.012;2022-09-01T00:24:01;1.70;;;1.40;;
53056;SDS011;38940;50.096;4.012;2022-09-01T00:26:27;3.60;;;1.63;;
53056;SDS011;38940;50.096;4.012;2022-09-01T00:28:53;2.38;;;1.50;;
53056;SDS011;38940;50.096;4.012;2022-09-01T00:31:20;1.60;;;1.42;;
53056;SDS011;38940;50.096;4.012;2022-09-01T00:33:48;3.20;;;1.75;;
53056;SDS011;38940;50.096;4.012;2022-09-01T00:36:14;7.20;;;1.95;;
53056;SDS011;38940;50.096;4.012;2022-09-01T00:38:41;1.90;;;1.70;;
53056;SDS011;38940;50.096;4.012;2022-09-01T00:41:07;2.05;;;1.67;;
53056;SDS011;38940;50.096;4.012;2022-09-01T00:46:03;2.15;;;1.45;;
53056;SDS011;38940;50.096;4.012;2022-09-01T00:48:30;3.20;;;1.50;;
53056;SDS011;38940;50.096;4.012;2022-09-01T00:50:56;6.93;;;2.00;;
53056;SDS011;38940;50.096;4.012;2022-09-01T00:53:23;5.38;;;1.60;;
53056;SDS011;38940;50.096;4.012;2022-09-01T00:55:49;2.90;;;1.60;;
53056;SDS011;38940;50.096;4.012;2022-09-01T00:58:15;2.97;;;1.75;;
53056;SDS011;38940;50.096;4.012;2022-09-01T01:00:42;4.60;;;2.00;;
53056;SDS011;38940;50.096;4.012;2022-09-01T01:03:11;3.50;;;2.00;;
53056;SDS011;38940;50.096;4.012;2022-09-01T01:05:39;8.38;;;1.60;;
53056;SDS011;38940;50.096;4.012;2022-09-01T01:08:06;4.85;;;2.35;;
53056;SDS011;38940;50.096;4.012;2022-09-01T01:10:35;4.82;;;1.67;;
53056;SDS011;38940;50.096;4.012;2022-09-01T01:13:10;2.33;;;1.63;;
53056;SDS011;38940;50.096;4.012;2022-09-01T01:15:37;4.32;;;2.15;;
53056;SDS011;38940;50.096;4.012;2022-09-01T01:18:08;1.45;;;1.33;;
53056;SDS011;38940;50.096;4.012;2022-09-01T01:20:34;4.32;;;2.30;;
53056;SDS011;38940;50.096;4.012;2022-09-01T01:25:52;2.03;;;1.77;;
53056;SDS011;38940;50.096;4.012;2022-09-01T01:28:21;3.13;;;1.50;;
53056;SDS011;38940;50.096;4.012;2022-09-01T01:30:57;5.38;;;1.65;;
53056;SDS011;38940;50.096;4.012;2022-09-01T01:33:28;2.40;;;1.63;;
53056;SDS011;38940;50.096;4.012;2022-09-01T01:35:55;2.20;;;1.63;;
53056;SDS011;38940;50.096;4.012;2022-09-01T01:38:21;5.68;;;2.10;;
53056;SDS011;38940;50.096;4.012;2022-09-01T01:40:48;2.67;;;1.73;;
53056;SDS011;38940;50.096;4.012;2022-09-01T01:43:17;3.05;;;1.58;;
53056;SDS011;38940;50.096;4.012;2022-09-01T01:45:47;1.88;;;1.40;;
53056;SDS011;38940;50.096;4.012;2022-09-01T01:48:15;2.15;;;1.60;;
53056;SDS011;38940;50.096;4.012;2022-09-01T01:50:46;2.67;;;2.13;;
53056;SDS011;38940;50.096;4.012;2022-09-01T01:53:13;6.38;;;1.92;;
53056;SDS011;38940;50.096;4.012;2022-09-01T01:55:43;4.03;;;1.90;;
53056;SDS011;38940;50.096;4.012;2022-09-01T01:58:09;4.63;;;1.85;;
53056;SDS011;38940;50.096;4.012;2022-09-01T02:00:36;4.25;;;2.00;;
53056;SDS011;38940;50.096;4.012;2022-09-01T02:03:02;3.45;;;1.52;;
53056;SDS011;38940;50.096;4.012;2022-09-01T02:05:30;2.50;;;1.90;;
53056;SDS011;38940;50.096;4.012;2022-09-01T02:07:59;3.67;;;2.05;;
53056;SDS011;38940;50.096;4.012;2022-09-01T02:10:29;4.78;;;2.05;;
53056;SDS011;38940;50.096;4.012;2022-09-01T02:12:56;3.22;;;2.10;;
53056;SDS011;38940;50.096;4.012;2022-09-01T02:15:30;1.70;;;1.50;;
53056;SDS011;38940;50.096;4.012;2022-09-01T02:20:28;1.83;;;1.50;;
53056;SDS011;38940;50.096;4.012;2022-09-01T02:22:57;3.83;;;2.13;;
53056;SDS011;38940;50.096;4.012;2022-09-01T02:25:34;3.45;;;1.90;;
53056;SDS011;38940;50.096;4.012;2022-09-01T02:28:01;5.85;;;1.65;;
53056;SDS011;38940;50.096;4.012;2022-09-01T02:30:28;4.63;;;1.70;;
53056;SDS011;38940;50.096;4.012;2022-09-01T02:32:57;2.53;;;1.90;;
53056;SDS011;38940;50.096;4.012;2022-09-01T02:35:23;3.92;;;2.08;;
53056;SDS011;38940;50.096;4.012;2022-09-01T02:38:02;5.80;;;1.98;;
53056;SDS011;38940;50.096;4.012;2022-09-01T02:40:29;2.85;;;1.83;;
53056;SDS011;38940;50.096;4.012;2022-09-01T02:42:59;2.95;;;1.73;;
53056;SDS011;38940;50.096;4.012;2022-09-01T02:45:26;4.05;;;1.80;;
53056;SDS011;38940;50.096;4.012;2022-09-01T02:47:53;2.35;;;1.75;;
53056;SDS011;38940;50.096;4.012;2022-09-01T02:50:21;2.33;;;1.67;;
53056;SDS011;38940;50.096;4.012;2022-09-01T02:52:49;4.15;;;2.05;;
53056;SDS011;38940;50.096;4.012;2022-09-01T02:55:17;4.32;;;2.20;;
53056;SDS011;38940;50.096;4.012;2022-09-01T02:57:46;2.45;;;1.90;;
53056;SDS011;38940;50.096;4.012;2022-09-01T03:00:12;3.58;;;1.67;;
53056;SDS011;38940;50.096;4.012;2022-09-01T03:02:49;2.35;;;1.90;;
53056;SDS011;38940;50.096;4.012;2022-09-01T03:05:17;3.20;;;2.05;;
53056;SDS011;38940;50.096;4.012;2022-09-01T03:07:49;3.65;;;1.52;;
53056;SDS011;38940;50.096;4.012;2022-09-01T03:10:20;2.65;;;2.05;;
53056;SDS011;38940;50.096;4.012;2022-09-01T03:12:47;3.13;;;2.17;;
53056;SDS011;38940;50.096;4.012;2022-09-01T03:15:13;2.40;;;1.95;;
53056;SDS011;38940;50.096;4.012;2022-09-01T03:17:40;3.92;;;2.40;;
53056;SDS011;38940;50.096;4.012;2022-09-01T03:20:06;3.78;;;2.40;;
53056;SDS011;38940;50.096;4.012;2022-09-01T03:22:32;3.40;;;2.40;;
53056;SDS011;38940;50.096;4.012;2022-09-01T03:24:58;3.72;;;2.28;;
53056;SDS011;38940;50.096;4.012;2022-09-01T03:27:24;2.63;;;1.98;;
53056;SDS011;38940;50.096;4.012;2022-09-01T03:29:50;2.33;;;1.83;;
53056;SDS011;38940;50.096;4.012;2022-09-01T03:32:16;3.20;;;2.20;;
53056;SDS011;38940;50.096;4.012;2022-09-01T03:34:43;3.45;;;2.10;;
53056;SDS011;38940;50.096;4.012;2022-09-01T03:37:09;4.40;;;2.33;;
53056;SDS011;38940;50.096;4.012;2022-09-01T03:39:36;4.38;;;2.10;;
53056;SDS011;38940;50.096;4.012;2022-09-01T03:42:03;3.83;;;2.20;;
53056;SDS011;38940;50.096;4.012;2022-09-01T03:44:29;4.78;;;2.65;;
53056;SDS011;38940;50.096;4.012;2022-09-01T03:46:59;4.18;;;2.30;;
53056;SDS011;38940;50.096;4.012;2022-09-01T03:49:25;6.25;;;2.35;;
53056;SDS011;38940;50.096;4.012;2022-09-01T03:51:52;4.40;;;1.75;;
53056;SDS011;38940;50.096;4.012;2022-09-01T03:54:18;2.55;;;2.13;;
53056;SDS011;38940;50.096;4.012;2022-09-01T03:56:48;2.28;;;1.55;;
53056;SDS011;38940;50.096;4.012;2022-09-01T03:59:15;2.22;;;1.70;;
53056;SDS011;38940;50.096;4.012;2022-09-01T04:01:41;4.80;;;2.40;;
53056;SDS011;38940;50.096;4.012;2022-09-01T04:04:08;3.85;;;2.20;;
53056;SDS011;38940;50.096;4.012;2022-09-01T04:06:37;2.97;;;1.92;;
53056;SDS011;38940;50.096;4.012;2022-09-01T04:09:03;3.35;;;2.30;;
53056;SDS011;38940;50.096;4.012;2022-09-01T04:11:29;2.97;;;2.10;;
53056;SDS011;38940;50.096;4.012;2022-09-01T04:13:56;8.13;;;2.10;;
53056;SDS011;38940;50.096;4.012;2022-09-01T04:16:24;8.52;;;3.05;;
53056;SDS011;38940;50.096;4.012;2022-09-01T04:19:09;3.80;;;2.72;;
53056;SDS011;38940;50.096;4.012;2022-09-01T04:21:48;4.07;;;2.38;;
53056;SDS011;38940;50.096;4.012;2022-09-01T04:24:15;3.40;;;2.22;;
53056;SDS011;38940;50.096;4.012;2022-09-01T04:26:42;6.45;;;1.95;;
53056;SDS011;38940;50.096;4.012;2022-09-01T04:29:12;3.75;;;2.08;;
53056;SDS011;38940;50.096;4.012;2022-09-01T04:31:39;4.72;;;2.40;;
53056;SDS011;38940;50.096;4.012;2022-09-01T04:34:06;3.65;;;2.25;;
53056;SDS011;38940;50.096;4.012;2022-09-01T04:36:38;4.60;;;2.40;;
53056;SDS011;38940;50.096;4.012;2022-09-01T04:39:05;4.63;;;2.53;;
53056;SDS011;38940;50.096;4.012;2022-09-01T04:41:38;4.43;;;2.00;;
53056;SDS011;38940;50.096;4.012;2022-09-01T04:44:05;4.65;;;2.47;;
53056;SDS011;38940;50.096;4.012;2022-09-01T04:46:33;3.65;;;2.53;;
53056;SDS011;38940;50.096;4.012;2022-09-01T04:49:00;3.58;;;2.42;;
53056;SDS011;38940;50.096;4.012;2022-09-01T04:51:34;6.10;;;3.00;;
53056;SDS011;38940;50.096;4.012;2022-09-01T04:54:02;5.57;;;2.50;;
53056;SDS011;38940;50.096;4.012;2022-09-01T04:56:32;8.65;;;3.03;;
53056;SDS011;38940;50.096;4.012;2022-09-01T04:59:01;8.93;;;2.55;;
53056;SDS011;38940;50.096;4.012;2022-09-01T05:01:31;4.55;;;2.85;;
53056;SDS011;38940;50.096;4.012;2022-09-01T05:04:07;2.88;;;2.47;;
53056;SDS011;38940;50.096;4.012;2022-09-01T05:06:33;4.30;;;2.13;;
53056;SDS011;38940;50.096;4.012;2022-09-01T05:09:03;6.20;;;3.05;;
53056;SDS011;38940;50.096;4.012;2022-09-01T05:11:29;5.13;;;2.45;;
53056;SDS011;38940;50.096;4.012;2022-09-01T05:13:55;4.15;;;2.60;;
53056;SDS011;38940;50.096;4.012;2022-09-01T05:16:22;3.70;;;2.47;;
53056;SDS011;38940;50.096;4.012;2022-09-01T05:18:49;3.17;;;2.25;;
53056;SDS011;38940;50.096;4.012;2022-09-01T05:21:21;5.85;;;2.35;;
53056;SDS011;38940;50.096;4.012;2022-09-01T05:23:50;3.20;;;2.10;;
53056;SDS011;38940;50.096;4.012;2022-09-01T05:26:20;6.30;;;2.67;;
53056;SDS011;38940;50.096;4.012;2022-09-01T05:28:48;3.47;;;2.30;;
53056;SDS011;38940;50.096;4.012;2022-09-01T05:31:14;3.55;;;2.33;;
53056;SDS011;38940;50.096;4.012;2022-09-01T05:33:44;3.72;;;2.50;;
53056;SDS011;38940;50.096;4.012;2022-09-01T05:36:12;3.85;;;2.13;;
53056;SDS011;38940;50.096;4.012;2022-09-01T05:38:39;3.35;;;2.30;;
53056;SDS011;38940;50.096;4.012;2022-09-01T05:41:07;4.45;;;2.42;;
53056;SDS011;38940;50.096;4.012;2022-09-01T05:43:34;3.30;;;2.15;;
53056;SDS011;38940;50.096;4.012;2022-09-01T05:46:04;2.95;;;2.13;;
53056;SDS011;38940;50.096;4.012;2022-09-01T05:48:31;3.95;;;2.42;;
53056;SDS011;38940;50.096;4.012;2022-09-01T05:51:03;2.83;;;2.00;;
53056;SDS011;38940;50.096;4.012;2022-09-01T05:53:30;4.97;;;2.45;;
53056;SDS011;38940;50.096;4.012;2022-09-01T05:55:58;7.38;;;2.33;;
53056;SDS011;38940;50.096;4.012;2022-09-01T05:58:25;4.45;;;2.40;;
53056;SDS011;38940;50.096;4.012;2022-09-01T06:00:52;3.13;;;2.25;;
53056;SDS011;38940;50.096;4.012;2022-09-01T06:03:21;4.38;;;2.28;;
53056;SDS011;38940;50.096;4.012;2022-09-01T06:05:48;3.22;;;2.13;;
53056;SDS011;38940;50.096;4.012;2022-09-01T06:08:19;6.63;;;2.33;;
53056;SDS011;38940;50.096;4.012;2022-09-01T06:10:45;3.58;;;2.15;;
53056;SDS011;38940;50.096;4.012;2022-09-01T06:13:14;3.15;;;2.08;;
53056;SDS011;38940;50.096;4.012;2022-09-01T06:15:41;2.95;;;2.15;;
53056;SDS011;38940;50.096;4.012;2022-09-01T06:18:11;3.33;;;2.17;;
53056;SDS011;38940;50.096;4.012;2022-09-01T06:20:39;2.17;;;1.67;;
53056;SDS011;38940;50.096;4.012;2022-09-01T06:23:08;4.47;;;2.30;;
53056;SDS011;38940;50.096;4.012;2022-09-01T06:25:37;6.95;;;2.85;;
53056;SDS011;38940;50.096;4.012;2022-09-01T06:28:06;5.93;;;2.13;;
53056;SDS011;38940;50.096;4.012;2022-09-01T06:30:32;2.53;;;2.22;;
53056;SDS011;38940;50.096;4.012;2022-09-01T06:33:00;3.55;;;2.08;;
53056;SDS011;38940;50.096;4.012;2022-09-01T06:35:29;3.15;;;2.08;;
53056;SDS011;38940;50.096;4.012;2022-09-01T06:37:56;3.03;;;1.90;;
53056;SDS011;38940;50.096;4.012;2022-09-01T06:40:22;3.80;;;1.80;;
53056;SDS011;38940;50.096;4.012;2022-09-01T06:42:50;1.90;;;1.60;;
53056;SDS011;38940;50.096;4.012;2022-09-01T06:45:17;3.13;;;2.03;;
53056;SDS011;38940;50.096;4.012;2022-09-01T06:47:44;3.83;;;1.95;;
53056;SDS011;38940;50.096;4.012;2022-09-01T06:50:12;5.53;;;2.00;;
53056;SDS011;38940;50.096;4.012;2022-09-01T06:52:42;2.40;;;1.65;;
53056;SDS011;38940;50.096;4.012;2022-09-01T06:55:09;5.60;;;2.53;;
53056;SDS011;38940;50.096;4.012;2022-09-01T06:57:36;4.55;;;1.67;;
53056;SDS011;38940;50.096;4.012;2022-09-01T07:00:07;4.55;;;1.90;;
53056;SDS011;38940;50.096;4.012;2022-09-01T07:02:45;4.43;;;2.28;;
53056;SDS011;38940;50.096;4.012;2022-09-01T07:05:12;1.92;;;1.63;;
53056;SDS011;38940;50.096;4.012;2022-09-01T07:07:41;4.47;;;2.63;;
53056;SDS011;38940;50.096;4.012;2022-09-01T07:10:08;11.95;;;2.08;;
53056;SDS011;38940;50.096;4.012;2022-09-01T07:12:35;2.80;;;2.17;;
53056;SDS011;38940;50.096;4.012;2022-09-01T07:15:01;3.38;;;2.15;;
53056;SDS011;38940;50.096;4.012;2022-09-01T07:17:27;4.80;;;2.55;;
53056;SDS011;38940;50.096;4.012;2022-09-01T07:19:54;3.10;;;1.83;;
53056;SDS011;38940;50.096;4.012;2022-09-01T07:22:21;2.35;;;1.58;;
53056;SDS011;38940;50.096;4.012;2022-09-01T07:24:47;6.43;;;2.38;;
53056;SDS011;38940;50.096;4.012;2022-09-01T07:27:13;7.43;;;2.05;;
53056;SDS011;38940;50.096;4.012;2022-09-01T07:29:40;2.58;;;1.67;;
53056;SDS011;38940;50.096;4.012;2022-09-01T07:32:06;2.17;;;1.73;;
53056;SDS011;38940;50.096;4.012;2022-09-01T07:34:33;4.65;;;2.15;;
53056;SDS011;38940;50.096;4.012;2022-09-01T07:36:59;12.63;;;2.58;;
53056;SDS011;38940;50.096;4.012;2022-09-01T07:39:25;4.30;;;2.13;;
53056;SDS011;38940;50.096;4.012;2022-09-01T07:41:51;2.50;;;1.90;;
53056;SDS011;38940;50.096;4.012;2022-09-01T07:44:18;3.03;;;2.35;;
53056;SDS011;38940;50.096;4.012;2022-09-01T07:46:45;2.90;;;1.90;;
53056;SDS011;38940;50.096;4.012;2022-09-01T07:49:15;5.55;;;2.55;;
53056;SDS011;38940;50.096;4.012;2022-09-01T07:51:41;4.32;;;2.20;;
53056;SDS011;38940;50.096;4.012;2022-09-01T07:54:08;2.45;;;1.75;;
53056;SDS011;38940;50.096;4.012;2022-09-01T07:56:37;10.20;;;2.30;;
53056;SDS011;38940;50.096;4.012;2022-09-01T07:59:05;2.03;;;1.65;;
53056;SDS011;38940;50.096;4.012;2022-09-01T08:01:32;4.38;;;2.03;;
53056;SDS011;38940;50.096;4.012;2022-09-01T08:03:58;3.60;;;1.80;;
53056;SDS011;38940;50.096;4.012;2022-09-01T08:06:26;5.32;;;1.65;;
53056;SDS011;38940;50.096;4.012;2022-09-01T08:08:54;1.77;;;1.63;;
53056;SDS011;38940;50.096;4.012;2022-09-01T08:11:24;2.42;;;1.63;;
53056;SDS011;38940;50.096;4.012;2022-09-01T08:13:53;4.10;;;1.98;;
53056;SDS011;38940;50.096;4.012;2022-09-01T08:16:19;1.88;;;1.52;;
53056;SDS011;38940;50.096;4.012;2022-09-01T08:18:46;2.35;;;1.98;;
53056;SDS011;38940;50.096;4.012;2022-09-01T08:21:12;3.17;;;1.80;;
53056;SDS011;38940;50.096;4.012;2022-09-01T08:23:39;2.65;;;1.45;;
53056;SDS011;38940;50.096;4.012;2022-09-01T08:26:10;3.15;;;1.73;;
53056;SDS011;38940;50.096;4.012;2022-09-01T08:28:36;2.17;;;1.70;;
53056;SDS011;38940;50.096;4.012;2022-09-01T08:31:07;3.28;;;1.38;;
53056;SDS011;38940;50.096;4.012;2022-09-01T08:33:35;2.53;;;1.55;;
53056;SDS011;38940;50.096;4.012;2022-09-01T08:36:01;2.08;;;1.40;;
53056;SDS011;38940;50.096;4.012;2022-09-01T08:38:27;2.30;;;1.67;;
53056;SDS011;38940;50.096;4.012;2022-09-01T08:40:55;10.30;;;1.92;;
53056;SDS011;38940;50.096;4.012;2022-09-01T08:45:56;3.05;;;1.83;;
53056;SDS011;38940;50.096;4.012;2022-09-01T08:50:55;5.65;;;1.83;;
53056;SDS011;38940;50.096;4.012;2022-09-01T08:53:28;1.88;;;1.33;;
53056;SDS011;38940;50.096;4.012;2022-09-01T08:55:57;2.50;;;1.70;;
53056;SDS011;38940;50.096;4.012;2022-09-01T08:58:23;2.00;;;1.50;;
53056;SDS011;38940;50.096;4.012;2022-09-01T09:00:54;3.03;;;1.60;;
53056;SDS011;38940;50.096;4.012;2022-09-01T09:03:35;4.72;;;1.30;;
53056;SDS011;38940;50.096;4.012;2022-09-01T09:08:42;3.75;;;1.63;;
53056;SDS011;38940;50.096;4.012;2022-09-01T09:16:24;1.90;;;1.20;;
53056;SDS011;38940;50.096;4.012;2022-09-01T09:18:56;1.80;;;1.30;;
53056;SDS011;38940;50.096;4.012;2022-09-01T09:21:28;1.73;;;1.23;;
53056;SDS011;38940;50.096;4.012;2022-09-01T09:24:12;2.00;;;1.23;;
53056;SDS011;38940;50.096;4.012;2022-09-01T09:26:39;2.63;;;1.20;;
53056;SDS011;38940;50.096;4.012;2022-09-01T09:29:05;1.33;;;1.20;;
53056;SDS011;38940;50.096;4.012;2022-09-01T09:31:32;1.13;;;1.00;;
53056;SDS011;38940;50.096;4.012;2022-09-01T09:33:59;6.18;;;1.25;;
53056;SDS011;38940;50.096;4.012;2022-09-01T09:36:31;5.15;;;1.27;;
53056;SDS011;38940;50.096;4.012;2022-09-01T09:39:08;2.20;;;1.42;;
53056;SDS011;38940;50.096;4.012;2022-09-01T09:41:35;1.95;;;1.42;;
53056;SDS011;38940;50.096;4.012;2022-09-01T09:49:07;1.73;;;1.33;;
53056;SDS011;38940;50.096;4.012;2022-09-01T09:51:34;1.23;;;0.95;;
53056;SDS011;38940;50.096;4.012;2022-09-01T09:56:45;1.27;;;1.17;;
53056;SDS011;38940;50.096;4.012;2022-09-01T09:59:29;1.52;;;1.25;;
53056;SDS011;38940;50.096;4.012;2022-09-01T10:01:59;2.00;;;1.13;;
53056;SDS011;38940;50.096;4.012;2022-09-01T10:04:36;2.80;;;1.23;;
53056;SDS011;38940;50.096;4.012;2022-09-01T10:07:21;1.75;;;1.42;;
53056;SDS011;38940;50.096;4.012;2022-09-01T10:09:48;2.22;;;1.13;;
53056;SDS011;38940;50.096;4.012;2022-09-01T10:12:14;2.33;;;1.40;;
53056;SDS011;38940;50.096;4.012;2022-09-01T10:14:41;1.35;;;1.00;;
53056;SDS011;38940;50.096;4.012;2022-09-01T10:17:13;4.85;;;1.42;;
53056;SDS011;38940;50.096;4.012;2022-09-01T10:19:47;2.33;;;1.30;;
53056;SDS011;38940;50.096;4.012;2022-09-01T10:22:14;17.20;;;1.63;;
53056;SDS011;38940;50.096;4.012;2022-09-01T10:24:40;1.15;;;1.05;;
53056;SDS011;38940;50.096;4.012;2022-09-01T10:27:07;1.15;;;1.05;;
53056;SDS011;38940;50.096;4.012;2022-09-01T10:29:45;1.00;;;1.00;;
53056;SDS011;38940;50.096;4.012;2022-09-01T10:32:15;2.42;;;1.17;;
53056;SDS011;38940;50.096;4.012;2022-09-01T10:34:42;1.33;;;0.88;;
53056;SDS011;38940;50.096;4.012;2022-09-01T10:37:09;4.20;;;1.30;;
53056;SDS011;38940;50.096;4.012;2022-09-01T10:40:06;1.63;;;1.10;;
53056;SDS011;38940;50.096;4.012;2022-09-01T10:42:25;1.98;;;1.23;;
53056;SDS011;38940;50.096;4.012;2022-09-01T10:44:55;2.38;;;0.93;;
53056;SDS011;38940;50.096;4.012;2022-09-01T10:47:26;1.58;;;1.08;;
53056;SDS011;38940;50.096;4.012;2022-09-01T10:55:05;2.15;;;1.20;;
53056;SDS011;38940;50.096;4.012;2022-09-01T10:57:38;1.17;;;0.88;;
53056;SDS011;38940;50.096;4.012;2022-09-01T11:02:31;5.93;;;1.63;;
53056;SDS011;38940;50.096;4.012;2022-09-01T11:12:48;23.23;;;1.55;;
53056;SDS011;38940;50.096;4.012;2022-09-01T11:20:25;1.50;;;0.93;;
53056;SDS011;38940;50.096;4.012;2022-09-01T11:25:34;1.30;;;1.00;;
53056;SDS011;38940;50.096;4.012;2022-09-01T11:28:34;9.05;;;0.98;;
53056;SDS011;38940;50.096;4.012;2022-09-01T11:30:56;1.30;;;1.00;;
53056;SDS011;38940;50.096;4.012;2022-09-01T11:36:11;4.05;;;1.65;;
53056;SDS011;38940;50.096;4.012;2022-09-01T11:41:18;2.60;;;1.60;;
53056;SDS011;38940;50.096;4.012;2022-09-01T11:43:47;1.92;;;1.23;;
53056;SDS011;38940;50.096;4.012;2022-09-01T11:46:16;1.73;;;1.23;;
53056;SDS011;38940;50.096;4.012;2022-09-01T11:48:45;1.13;;;1.02;;
53056;SDS011;38940;50.096;4.012;2022-09-01T11:51:12;1.35;;;0.82;;
53056;SDS011;38940;50.096;4.012;2022-09-01T11:53:38;2.10;;;1.10;;
53056;SDS011;38940;50.096;4.012;2022-09-01T11:56:15;2.08;;;1.10;;
53056;SDS011;38940;50.096;4.012;2022-09-01T11:58:41;1.75;;;1.20;;
53056;SDS011;38940;50.096;4.012;2022-09-01T12:03:37;1.42;;;1.20;;
53056;SDS011;38940;50.096;4.012;2022-09-01T12:06:07;2.40;;;1.30;;
53056;SDS011;38940;50.096;4.012;2022-09-01T12:08:38;1.70;;;1.20;;
53056;SDS011;38940;50.096;4.012;2022-09-01T12:11:12;2.95;;;1.20;;
53056;SDS011;38940;50.096;4.012;2022-09-01T12:13:52;0.80;;;0.80;;
53056;SDS011;38940;50.096;4.012;2022-09-01T12:16:19;2.15;;;1.38;;
53056;SDS011;38940;50.096;4.012;2022-09-01T12:18:46;1.38;;;1.13;;
53056;SDS011;38940;50.096;4.012;2022-09-01T12:21:21;1.40;;;1.30;;
53056;SDS011;38940;50.096;4.012;2022-09-01T12:23:48;3.22;;;1.20;;
53056;SDS011;38940;50.096;4.012;2022-09-01T12:26:16;1.00;;;0.90;;
53056;SDS011;38940;50.096;4.012;2022-09-01T12:28:43;1.50;;;1.10;;
53056;SDS011;38940;50.096;4.012;2022-09-01T12:31:14;2.83;;;1.27;;
53056;SDS011;38940;50.096;4.012;2022-09-01T12:33:44;1.90;;;1.20;;
53056;SDS011;38940;50.096;4.012;2022-09-01T12:36:14;0.98;;;0.90;;
53056;SDS011;38940;50.096;4.012;2022-09-01T12:38:40;1.13;;;1.02;;
53056;SDS011;38940;50.096;4.012;2022-09-01T12:43:51;1.15;;;1.00;;
53056;SDS011;38940;50.096;4.012;2022-09-01T12:57:38;1.02;;;0.93;;
53056;SDS011;38940;50.096;4.012;2022-09-01T13:02:35;3.28;;;1.00;;
53056;SDS011;38940;50.096;4.012;2022-09-01T13:05:17;4.30;;;1.10;;
53056;SDS011;38940;50.096;4.012;2022-09-01T13:07:43;1.20;;;1.10;;
53056;SDS011;38940;50.096;4.012;2022-09-01T13:10:09;3.83;;;1.55;;
53056;SDS011;38940;50.096;4.012;2022-09-01T13:12:39;4.13;;;1.35;;
53056;SDS011;38940;50.096;4.012;2022-09-01T13:15:06;1.95;;;1.10;;
53056;SDS011;38940;50.096;4.012;2022-09-01T13:17:32;1.05;;;0.80;;
53056;SDS011;38940;50.096;4.012;2022-09-01T13:19:58;2.10;;;1.05;;
53056;SDS011;38940;50.096;4.012;2022-09-01T13:22:24;1.30;;;0.98;;
53056;SDS011;38940;50.096;4.012;2022-09-01T13:24:51;2.03;;;1.00;;
53056;SDS011;38940;50.096;4.012;2022-09-01T13:27:17;1.15;;;1.05;;
53056;SDS011;38940;50.096;4.012;2022-09-01T13:29:43;1.52;;;1.00;;
53056;SDS011;38940;50.096;4.012;2022-09-01T13:32:10;1.30;;;0.80;;
53056;SDS011;38940;50.096;4.012;2022-09-01T13:34:36;3.15;;;1.25;;
53056;SDS011;38940;50.096;4.012;2022-09-01T13:37:03;1.95;;;1.50;;
53056;SDS011;38940;50.096;4.012;2022-09-01T13:39:29;1.40;;;1.00;;
53056;SDS011;38940;50.096;4.012;2022-09-01T13:41:56;1.23;;;0.98;;
53056;SDS011;38940;50.096;4.012;2022-09-01T13:44:22;2.20;;;0.90;;
53056;SDS011;38940;50.096;4.012;2022-09-01T13:46:48;2.65;;;1.10;;
53056;SDS011;38940;50.096;4.012;2022-09-01T13:49:14;0.82;;;0.82;;
53056;SDS011;38940;50.096;4.012;2022-09-01T13:51:40;2.28;;;1.25;;
53056;SDS011;38940;50.096;4.012;2022-09-01T13:54:06;1.58;;;0.90;;
53056;SDS011;38940;50.096;4.012;2022-09-01T13:56:32;5.80;;;1.23;;
53056;SDS011;38940;50.096;4.012;2022-09-01T13:58:59;1.38;;;1.05;;
53056;SDS011;38940;50.096;4.012;2022-09-01T14:01:25;1.05;;;0.82;;
53056;SDS011;38940;50.096;4.012;2022-09-01T14:03:51;0.65;;;0.65;;
53056;SDS011;38940;50.096;4.012;2022-09-01T14:06:17;0.80;;;0.80;;
53056;SDS011;38940;50.096;4.012;2022-09-01T14:08:45;1.67;;;0.82;;
53056;SDS011;38940;50.096;4.012;2022-09-01T14:11:20;4.22;;;0.80;;
53056;SDS011;38940;50.096;4.012;2022-09-01T14:13:46;4.78;;;1.52;;
53056;SDS011;38940;50.096;4.012;2022-09-01T14:16:12;1.75;;;1.00;;
53056;SDS011;38940;50.096;4.012;2022-09-01T14:18:39;0.80;;;0.80;;
53056;SDS011;38940;50.096;4.012;2022-09-01T14:21:09;1.55;;;1.10;;
53056;SDS011;38940;50.096;4.012;2022-09-01T14:23:35;1.35;;;0.90;;
53056;SDS011;38940;50.096;4.012;2022-09-01T14:26:01;0.85;;;0.82;;
53056;SDS011;38940;50.096;4.012;2022-09-01T14:28:27;0.82;;;0.77;;
53056;SDS011;38940;50.096;4.012;2022-09-01T14:30:53;0.68;;;0.68;;
53056;SDS011;38940;50.096;4.012;2022-09-01T14:33:19;4.80;;;1.10;;
53056;SDS011;38940;50.096;4.012;2022-09-01T14:35:48;0.80;;;0.80;;
53056;SDS011;38940;50.096;4.012;2022-09-01T14:38:14;1.20;;;0.88;;
53056;SDS011;38940;50.096;4.012;2022-09-01T14:40:41;4.80;;;1.08;;
53056;SDS011;38940;50.096;4.012;2022-09-01T14:43:08;4.22;;;0.98;;
53056;SDS011;38940;50.096;4.012;2022-09-01T14:45:36;1.05;;;1.00;;
53056;SDS011;38940;50.096;4.012;2022-09-01T14:48:03;1.15;;;0.85;;
53056;SDS011;38940;50.096;4.012;2022-09-01T14:50:29;1.42;;;0.93;;
53056;SDS011;38940;50.096;4.012;2022-09-01T14:52:57;1.02;;;0.90;;
53056;SDS011;38940;50.096;4.012;2022-09-01T14:55:24;3.80;;;0.90;;
53056;SDS011;38940;50.096;4.012;2022-09-01T14:57:50;2.47;;;0.93;;
53056;SDS011;38940;50.096;4.012;2022-09-01T15:00:17;2.05;;;1.08;;
53056;SDS011;38940;50.096;4.012;2022-09-01T15:02:43;1.70;;;1.08;;
53056;SDS011;38940;50.096;4.012;2022-09-01T15:05:10;1.27;;;0.98;;
53056;SDS011;38940;50.096;4.012;2022-09-01T15:07:36;2.88;;;1.23;;
53056;SDS011;38940;50.096;4.012;2022-09-01T15:10:04;2.17;;;0.88;;
53056;SDS011;38940;50.096;4.012;2022-09-01T15:12:30;3.28;;;0.80;;
53056;SDS011;38940;50.096;4.012;2022-09-01T15:14:57;4.03;;;1.13;;
53056;SDS011;38940;50.096;4.012;2022-09-01T15:17:23;0.88;;;0.80;;
53056;SDS011;38940;50.096;4.012;2022-09-01T15:19:50;1.08;;;0.98;;
53056;SDS011;38940;50.096;4.012;2022-09-01T15:22:16;9.27;;;0.73;;
53056;SDS011;38940;50.096;4.012;2022-09-01T15:24:42;5.32;;;2.15;;
53056;SDS011;38940;50.096;4.012;2022-09-01T15:27:08;10.15;;;1.50;;
53056;SDS011;38940;50.096;4.012;2022-09-01T15:29:35;1.58;;;1.00;;
53056;SDS011;38940;50.096;4.012;2022-09-01T15:32:10;0.82;;;0.70;;
53056;SDS011;38940;50.096;4.012;2022-09-01T15:34:36;0.68;;;0.68;;
53056;SDS011;38940;50.096;4.012;2022-09-01T15:37:03;4.63;;;0.90;;
53056;SDS011;38940;50.096;4.012;2022-09-01T15:39:29;1.10;;;0.95;;
53056;SDS011;38940;50.096;4.012;2022-09-01T15:41:55;3.22;;;1.35;;
53056;SDS011;38940;50.096;4.012;2022-09-01T15:44:21;1.33;;;0.85;;
53056;SDS011;38940;50.096;4.012;2022-09-01T15:46:47;1.60;;;1.05;;
53056;SDS011;38940;50.096;4.012;2022-09-01T15:49:14;2.45;;;0.90;;
53056;SDS011;38940;50.096;4.012;2022-09-01T15:51:42;10.10;;;1.00;;
53056;SDS011;38940;50.096;4.012;2022-09-01T15:54:10;4.50;;;1.20;;
53056;SDS011;38940;50.096;4.012;2022-09-01T15:56:36;0.80;;;0.80;;
53056;SDS011;38940;50.096;4.012;2022-09-01T15:59:03;3.40;;;1.23;;
53056;SDS011;38940;50.096;4.012;2022-09-01T16:01:30;0.85;;;0.80;;
53056;SDS011;38940;50.096;4.012;2022-09-01T16:03:57;1.02;;;0.80;;
53056;SDS011;38940;50.096;4.012;2022-09-01T16:06:23;0.98;;;0.88;;
53056;SDS011;38940;50.096;4.012;2022-09-01T16:08:50;1.70;;;0.95;;
53056;SDS011;38940;50.096;4.012;2022-09-01T16:11:18;9.23;;;0.85;;